Nearby METAR Reports

 

ENRY - Rygge (nor-Afb), Norway
Distance from station: SØ 12km
Oppdatert: 12/11/2019 22:50
Rain showers, Tåke, Hovedsaklig skyet
Rain showers, Tåke, Hovedsaklig skyet
 Vind fra S
Vind: S 7 km/h
Temperatur: 4°C
Wind Chill: 2°C
Duggpunkt: 3°C
Fuktighet: 93%
Barometer: 998 hPa
Oversikt: Rain showers, Tåke
Clouds: Hovedsaklig skyet
Visibility: 4 km
Cloud details: Few Clouds 152 m
Delvis skyet 305 m
Hovedsaklig skyet 488 m
2019/11/12 21:50 ENRY 122150Z 17004KT 130V210 4000 SHRA BR FEW005 SCT010 BKN016 04/03 Q0998
ENTO - Torp (civ/Nor-Af, Norway
Distance from station: SV 34km
Oppdatert: 12/11/2019 22:50
Noe regn, Hovedsaklig skyet
Noe regn, Hovedsaklig skyet
 Vind fra SV
Vind: SV 6 km/h
Temperatur: 3°C
Duggpunkt: 3°C
Fuktighet: 100%
Barometer: 998 hPa
Oversikt: Noe regn
Clouds: Hovedsaklig skyet
Visibility: 7 km
Cloud details: Few Clouds 457 m
Delvis skyet 762 m
Hovedsaklig skyet 1128 m
2019/11/12 21:50 ENTO 122150Z 23003KT 7000 -RA FEW015 SCT025 BKN037 03/03 Q0998 TEMPO 4000 SHRA BR SCT004 BKN008
 
ENNO - Notodden, Norway
Distance from station: V 80km
Oppdatert: 12/11/2019 18:50
NOT Current
Lett snø, Regn, Hovedsaklig skyet
Lett snø, Regn, Hovedsaklig skyet
 Vind fra calm
Vind: Stille
Temperatur: 0°C
Duggpunkt: 0°C
Fuktighet: 100%
Barometer: 997 hPa
Oversikt: Lett snø, Regn
Clouds: Hovedsaklig skyet
Visibility: 6 km
Cloud details: Few Clouds 61 m
Delvis skyet 244 m
Hovedsaklig skyet 518 m
2019/11/12 17:50 ENNO 121750Z 00000KT 6000 -SNRA FEW002 SCT008 BKN017 00/M00 Q0997
ENGM - Oslo/Gardermoen, Norway
Distance from station: NNØ 88km
Oppdatert: 12/11/2019 22:50
Overskyet
Overskyet
 Vind fra N
Vind: N 6 km/h
Temperatur: 0°C
Duggpunkt: 0°C
Fuktighet: 100%
Barometer: 998 hPa
Clouds: Overskyet
Visibility: 7 km
Cloud details: Overskyet 91 m
2019/11/12 21:50 ENGM 122150Z 36003KT 340V040 7000 OVC003 00/00 Q0998 TEMPO 4000 BR
 
ESOK - Karlstad North, Sweden
Distance from station: Ø 153km
Oppdatert: 12/11/2019 22:50
Hovedsaklig skyet
Hovedsaklig skyet
 Vind fra S
Vind: S 26 km/h
Temperatur: 5°C
Wind Chill: 1°C
Duggpunkt: 4°C
Fuktighet: 93%
Barometer: 1001 hPa
Clouds: Hovedsaklig skyet
Visibility: 9 km
Cloud details: Few Clouds 274 m
Delvis skyet 366 m
Hovedsaklig skyet 457 m
2019/11/12 21:50 ESOK 122150Z AUTO 18014KT 9000 FEW009/// SCT012/// BKN015/// 05/04 Q1001
ESST - Torsby, Sweden
Distance from station: ØNØ 154km
Oppdatert: 12/11/2019 22:50
Yr, Overskyet
Yr, Overskyet
 Vind fra SSØ
Vind: SSØ 9 km/h
Temperatur: 3°C
Wind Chill: 0°C
Duggpunkt: 3°C
Fuktighet: 100%
Barometer: 1000 hPa
Oversikt: Yr
Clouds: Overskyet
Visibility: 4 km
Cloud details: Delvis skyet 244 m
Overskyet 335 m
2019/11/12 21:50 ESST 122150Z AUTO 15005KT 3500 DZ SCT008/// OVC011/// 03/03 Q1000 REUP REDZ
 
ESGT - Trollhattan (pvt, Sweden
Distance from station: SØ 159km
Oppdatert: 12/11/2019 22:50
Hovedsaklig skyet
Hovedsaklig skyet
 Vind fra SSØ
Vind: SSØ 13 km/h
Temperatur: 4°C
Wind Chill: 1°C
Duggpunkt: 3°C
Fuktighet: 93%
Barometer: 1002 hPa
Clouds: Hovedsaklig skyet
Visibility: 10 km
Cloud details: Few Clouds 488 m
Delvis skyet 732 m
Hovedsaklig skyet 945 m
2019/11/12 21:50 ESGT 122150Z AUTO 16007KT 9999 R15/P2000N R33///// FEW016/// SCT024/// BKN031/// 04/03 Q1002
ESIB - Satenas (swe-Afb, Sweden
Distance from station: SØ 164km
Oppdatert: 12/11/2019 22:50
Klart
Klart
 Vind fra S
Vind: S 17 km/h
Temperatur: 4°C
Wind Chill: 0°C
Duggpunkt: 3°C
Fuktighet: 93%
Barometer: 1001 hPa
Clouds: Klart
Visibility: 10 km
2019/11/12 21:50 ESIB 122150Z AUTO 17009KT 9999 NCD 04/03 Q1001
 
ENCN - Kristiansand/Kje, Norway
Distance from station: SV 202km
Oppdatert: 12/11/2019 22:50
Noe regn, Overskyet
Noe regn, Overskyet
 Vind fra varies
Vind: varies 4 km/h
Temperatur: 4°C
Duggpunkt: 4°C
Fuktighet: 100%
Barometer: 997 hPa
Oversikt: Noe regn
Clouds: Overskyet
Visibility: 6 km
Cloud details: Few Clouds 61 m
Delvis skyet 396 m
Overskyet 884 m
2019/11/12 21:50 ENCN 122150Z VRB02KT 6000 -RA FEW002 SCT013 OVC029 04/04 Q0997
EKSN - Sindal Airport, Denmark
Distance from station: S 217km
Oppdatert: 12/11/2019 15:50
NOT Current
Hovedsaklig skyet
Hovedsaklig skyet
 Vind fra S
Vind: S 24 km/h
Temperatur: 6°C
Wind Chill: 2°C
Duggpunkt: 4°C
Fuktighet: 87%
Barometer: 997 hPa
Clouds: Hovedsaklig skyet
Visibility: 10 km
Cloud details: Hovedsaklig skyet 549 m
2019/11/12 14:50 EKSN 121450Z 18013KT 9999 BKN018 06/04 Q0997
 
ESGG - Goteborg/Landvet, Sweden
Distance from station: SSØ 220km
Oppdatert: 12/11/2019 22:50
Hovedsaklig skyet
Hovedsaklig skyet
 Vind fra SSØ
Vind: SSØ 19 km/h
Temperatur: 3°C
Wind Chill: -2°C
Duggpunkt: 2°C
Fuktighet: 93%
Barometer: 1001 hPa
Clouds: Hovedsaklig skyet
Visibility: 10 km
Cloud details: Hovedsaklig skyet 183 m
2019/11/12 21:50 ESGG 122150Z 15010KT 9999 BKN006 03/02 Q1001 R21/29//95
ESGR - Skovde Airport, Sweden
Distance from station: ØSØ 221km
Oppdatert: 12/11/2019 22:50
Overskyet
Overskyet
 Vind fra SSØ
Vind: SSØ 15 km/h
Temperatur: 4°C
Wind Chill: 1°C
Duggpunkt: 3°C
Fuktighet: 93%
Barometer: 1003 hPa
Clouds: Overskyet
Visibility: 10 km
Cloud details: Overskyet 579 m
2019/11/12 21:50 ESGR 122150Z AUTO 15008KT 9999 OVC019/// 04/03 Q1003
 
ESOE - Orebro (private), Sweden
Distance from station: Ø 252km
Oppdatert: 12/11/2019 22:50
Overskyet
Overskyet
 Vind fra SSØ
Vind: SSØ 13 km/h
Temperatur: 4°C
Wind Chill: 1°C
Duggpunkt: 2°C
Fuktighet: 87%
Barometer: 1003 hPa
Clouds: Overskyet
Visibility: 10 km
Cloud details: Overskyet 1219 m
2019/11/12 21:50 ESOE 122150Z AUTO 15007KT 9999 OVC040/// 04/02 Q1003
EKYT - Alborg, Denmark
Distance from station: S 264km
Oppdatert: 12/11/2019 22:50
Hovedsaklig skyet
Hovedsaklig skyet
 Vind fra SSØ
Vind: SSØ 17 km/h
Temperatur: 4°C
Wind Chill: 0°C
Duggpunkt: 2°C
Fuktighet: 87%
Barometer: 999 hPa
Clouds: Hovedsaklig skyet
Visibility: 10 km
Cloud details: Few Clouds 3658 m
Hovedsaklig skyet 4572 m
2019/11/12 21:50 EKYT 122150Z AUTO 15009KT 9999 FEW120/// BKN150/// 04/02 Q0999
 
ENSG - Sogndal/Haukasen, Norway
Distance from station: NV 269km
Oppdatert: 12/11/2019 21:50
NOT Current

 Vind fra calm
Vind: Stille
Visibility: 10 km
2019/11/12 20:50 ENSG 122050Z 00000KT 9999 FEW/// BKN042 M02/M02 Q0994 RMK WIND 3806FT 10012KT
ESGJ - Jonkoping Airpor, Sweden
Distance from station: SØ 273km
Oppdatert: 12/11/2019 22:50
Hovedsaklig skyet
Hovedsaklig skyet
 Vind fra S
Vind: S 13 km/h
Temperatur: 3°C
Wind Chill: -1°C
Duggpunkt: 2°C
Fuktighet: 93%
Barometer: 1002 hPa
Clouds: Hovedsaklig skyet
Visibility: 10 km
Cloud details: Hovedsaklig skyet 244 m
2019/11/12 21:50 ESGJ 122150Z 17007KT 9999 BKN008 03/02 Q1002
 
ENZV - Stavanger/Sola(A, Norway
Distance from station: V 292km
Oppdatert: 12/11/2019 22:50
Klart
Klart
 Vind fra ØSØ
Vind: ØSØ 17 km/h
Temperatur: 5°C
Wind Chill: 2°C
Duggpunkt: 3°C
Fuktighet: 87%
Barometer: 994 hPa
Oversikt: Klart
Visibility: greater than 10 km
2019/11/12 21:50 ENZV 122150Z 12009KT CAVOK 05/03 Q0994
ESSD - Borlange (swe-Af, Sweden
Distance from station: ØNØ 292km
Oppdatert: 12/11/2019 22:50
Overskyet
Overskyet
 Vind fra SØ
Vind: SØ 11 km/h
Temperatur: 2°C
Wind Chill: -1°C
Duggpunkt: 1°C
Fuktighet: 93%
Barometer: 1002 hPa
Clouds: Overskyet
Visibility: 10 km
Cloud details: Hovedsaklig skyet 335 m
Overskyet 1158 m
2019/11/12 21:50 ESSD 122150Z AUTO 14006KT 9999 BKN011/// OVC038/// 02/01 Q1002
 
ENSO - Stord/Soerstokke, Norway
Distance from station: V 300km
Oppdatert: 12/11/2019 18:50
NOT Current
Noe regn, Hovedsaklig skyet
Noe regn, Hovedsaklig skyet
 Vind fra NNV
Vind: NNV 2 km/h
Temperatur: 5°C
Duggpunkt: 3°C
Fuktighet: 87%
Barometer: 993 hPa
Oversikt: Noe regn
Clouds: Hovedsaklig skyet
Visibility: 10 km
Cloud details: Delvis skyet 1219 m
Hovedsaklig skyet 1829 m
2019/11/12 17:50 ENSO 121750Z 34001KT 9999 -RA SCT040 BKN060 05/03 Q0993
ESCF - Linkoping/Malmen, Sweden
Distance from station: ØSØ 305km
Oppdatert: 12/11/2019 22:50
Hovedsaklig skyet
Hovedsaklig skyet
 Vind fra SSØ
Vind: SSØ 13 km/h
Temperatur: 3°C
Wind Chill: -1°C
Duggpunkt: 2°C
Fuktighet: 93%
Barometer: 1005 hPa
Clouds: Hovedsaklig skyet
Visibility: 10 km
Cloud details: Hovedsaklig skyet 610 m
2019/11/12 21:50 ESCF 122150Z AUTO 16007KT 9999 BKN020/// 03/02 Q1005